ADDS METAR Data INFO
IDs: Format: Raw Decoded Include TAF

Data at: 0730 UTC 18 Oct 2017

KCRP 180651Z 31004KT 10SM CLR 14/13 A3014 RMK AO2 SLP205 T01440128